createdAt,value
2018-09-19T00:00:54.236Z,8.07
2018-09-19T00:03:23.999Z,8.03
2018-09-19T00:05:53.025Z,7.90
2018-09-19T00:08:22.501Z,7.90
2018-09-19T00:10:50.607Z,7.73
2018-09-19T00:13:18.786Z,7.63
2018-09-19T00:15:47.486Z,7.57
2018-09-19T00:18:15.576Z,7.97
2018-09-19T00:20:44.908Z,7.87
2018-09-19T00:23:12.932Z,7.60
2018-09-19T00:25:40.981Z,7.87
2018-09-19T00:28:09.942Z,8.03
2018-09-19T00:30:38.392Z,8.13
2018-09-19T00:33:06.431Z,8.87
2018-09-19T00:35:35.621Z,8.77
2018-09-19T00:38:03.646Z,8.37
2018-09-19T00:40:35.182Z,7.93
2018-09-19T00:43:04.941Z,8.53
2018-09-19T00:45:33.027Z,11.23
2018-09-19T00:48:02.962Z,8.70
2018-09-19T00:50:31.744Z,7.80
2018-09-19T00:52:59.880Z,8.70
2018-09-19T00:58:12.534Z,7.93
2018-09-19T01:00:40.639Z,9.33
2018-09-19T01:03:13.945Z,8.00
2018-09-19T01:05:47.042Z,8.53
2018-09-19T01:08:15.968Z,8.30
2018-09-19T01:10:45.957Z,8.40
2018-09-19T01:13:13.938Z,8.37
2018-09-19T01:16:05.730Z,8.53
2018-09-19T01:18:34.728Z,8.77
2018-09-19T01:21:02.798Z,8.77
2018-09-19T01:23:30.889Z,8.77
2018-09-19T01:25:59.129Z,8.60
2018-09-19T01:28:27.649Z,9.00
2018-09-19T01:30:55.781Z,9.53
2018-09-19T01:33:25.815Z,9.10
2018-09-19T01:35:53.945Z,8.37
2018-09-19T01:38:23.965Z,9.10
2018-09-19T01:40:52.145Z,8.47
2018-09-19T01:43:21.550Z,9.10
2018-09-19T01:45:50.816Z,9.17
2018-09-19T01:48:18.986Z,9.30
2018-09-19T01:50:47.843Z,9.40
2018-09-19T01:53:15.844Z,8.33
2018-09-19T01:55:43.853Z,9.20
2018-09-19T01:58:13.504Z,8.50
2018-09-19T02:00:41.866Z,9.50
2018-09-19T02:03:09.938Z,8.80
2018-09-19T02:05:37.952Z,9.30
2018-09-19T02:08:06.981Z,8.93
2018-09-19T02:10:34.986Z,9.33
2018-09-19T02:13:03.357Z,9.03
2018-09-19T02:15:33.629Z,10.17
2018-09-19T02:18:02.483Z,9.17
2018-09-19T02:20:32.168Z,10.30
2018-09-19T02:23:00.601Z,9.20
2018-09-19T02:25:28.677Z,9.83
2018-09-19T02:27:58.090Z,9.17
2018-09-19T02:30:26.971Z,9.67
2018-09-19T02:32:56.008Z,10.03
2018-09-19T02:35:24.835Z,9.60
2018-09-19T02:37:52.747Z,9.60
2018-09-19T02:40:20.820Z,9.40
2018-09-19T02:42:50.286Z,10.30
2018-09-19T02:45:19.492Z,10.70
2018-09-19T02:47:48.978Z,9.23
2018-09-19T02:50:17.010Z,9.37
2018-09-19T02:52:49.729Z,9.57
2018-09-19T02:55:18.685Z,9.77
2018-09-19T02:57:46.907Z,9.23
2018-09-19T03:00:14.947Z,9.63
2018-09-19T03:02:44.646Z,9.00
2018-09-19T03:05:14.472Z,8.90
2018-09-19T03:07:46.540Z,9.77
2018-09-19T03:10:15.475Z,10.03
2018-09-19T03:12:45.140Z,10.87
2018-09-19T03:15:14.250Z,9.23
2018-09-19T03:17:42.887Z,9.67
2018-09-19T03:20:10.970Z,9.70
2018-09-19T03:22:39.007Z,9.77
2018-09-19T03:25:07.183Z,9.23
2018-09-19T03:27:36.221Z,10.80
2018-09-19T03:30:05.719Z,9.70
2018-09-19T03:32:34.678Z,9.97
2018-09-19T03:35:04.272Z,9.70
2018-09-19T03:37:37.711Z,9.60
2018-09-19T03:40:06.783Z,9.90
2018-09-19T03:42:36.175Z,10.70
2018-09-19T03:45:04.419Z,9.90
2018-09-19T03:47:59.628Z,11.53
2018-09-19T03:50:39.451Z,10.73
2018-09-19T03:53:10.655Z,10.73
2018-09-19T03:55:41.919Z,11.27
2018-09-19T03:58:15.473Z,10.13
2018-09-19T04:00:51.582Z,10.47
2018-09-19T04:03:44.991Z,9.40
2018-09-19T04:06:14.172Z,9.63
2018-09-19T04:08:45.645Z,10.23
2018-09-19T04:11:13.889Z,10.73
2018-09-19T04:13:42.493Z,9.67
2018-09-19T04:16:10.560Z,10.67
2018-09-19T04:18:38.513Z,9.90
2018-09-19T04:21:06.935Z,9.63
2018-09-19T04:23:35.641Z,9.97
2018-09-19T04:26:04.442Z,9.93
2018-09-19T04:28:33.134Z,9.50
2018-09-19T04:31:02.277Z,9.20
2018-09-19T04:33:34.815Z,9.53
2018-09-19T04:36:06.505Z,9.13
2018-09-19T04:38:36.330Z,9.97
2018-09-19T04:41:04.294Z,10.13
2018-09-19T04:43:35.524Z,10.27
2018-09-19T04:46:04.106Z,9.57
2018-09-19T04:48:34.473Z,15.83
2018-09-19T04:51:03.389Z,11.10
2018-09-19T04:53:32.265Z,10.67
2018-09-19T04:56:00.264Z,10.63
2018-09-19T04:58:30.042Z,10.90
2018-09-19T05:00:58.041Z,11.10
2018-09-19T05:03:26.273Z,10.30
2018-09-19T05:05:55.786Z,11.00
2018-09-19T05:08:23.965Z,10.60
2018-09-19T05:10:55.884Z,10.50
2018-09-19T05:13:26.749Z,10.57
2018-09-19T05:16:08.084Z,10.83
2018-09-19T05:18:52.710Z,10.73
2018-09-19T05:21:30.693Z,11.20
2018-09-19T05:24:11.418Z,10.57
2018-09-19T05:27:00.302Z,10.23
2018-09-19T05:29:39.729Z,10.40
2018-09-19T05:35:44.834Z,11.03
2018-09-19T05:38:43.121Z,11.20
2018-09-19T05:41:29.783Z,11.40
2018-09-19T05:43:59.147Z,11.60
2018-09-19T05:46:36.669Z,11.90
2018-09-19T05:49:08.306Z,12.70
2018-09-19T05:51:37.709Z,11.57
2018-09-19T05:54:27.692Z,12.67
2018-09-19T05:57:04.913Z,12.50
2018-09-19T05:59:35.647Z,11.60
2018-09-19T06:02:08.013Z,12.27
2018-09-19T06:04:36.611Z,11.73
2018-09-19T06:07:06.404Z,11.73
2018-09-19T06:09:34.615Z,11.90
2018-09-19T06:12:02.717Z,11.73
2018-09-19T06:14:31.446Z,11.90
2018-09-19T06:16:59.626Z,12.03
2018-09-19T06:19:27.585Z,11.37
2018-09-19T06:21:57.005Z,13.40
2018-09-19T06:24:29.507Z,13.50
2018-09-19T06:27:03.233Z,12.97
2018-09-19T06:29:39.018Z,12.30
2018-09-19T06:32:14.142Z,12.37
2018-09-19T06:34:42.875Z,11.70
2018-09-19T06:37:14.587Z,12.20
2018-09-19T06:39:43.184Z,12.47
2018-09-19T06:42:11.298Z,12.77
2018-09-19T06:44:40.418Z,12.53
2018-09-19T06:47:09.448Z,11.87
2018-09-19T06:49:38.126Z,11.77
2018-09-19T06:52:06.877Z,11.67
2018-09-19T06:54:35.005Z,11.70
2018-09-19T06:57:02.933Z,11.70
2018-09-19T06:59:31.922Z,12.67
2018-09-19T07:02:10.571Z,11.97
2018-09-19T07:04:38.719Z,12.67
2018-09-19T07:07:08.185Z,11.90
2018-09-19T07:09:36.565Z,11.87
2018-09-19T07:12:04.920Z,10.20
2018-09-19T07:14:33.594Z,10.00
2018-09-19T07:17:03.494Z,10.97
2018-09-19T07:19:43.865Z,10.93
2018-09-19T07:22:13.814Z,10.37
2018-09-19T07:24:43.236Z,9.23
2018-09-19T07:27:38.456Z,10.60
2018-09-19T07:33:44.535Z,8.13
2018-09-19T07:36:13.028Z,7.63
2018-09-19T07:38:41.625Z,7.80
2018-09-19T07:41:13.018Z,7.77
2018-09-19T07:43:42.441Z,7.10
2018-09-19T07:46:11.326Z,7.07
2018-09-19T07:48:47.250Z,6.83
2018-09-19T07:51:15.883Z,8.20
2018-09-19T07:53:44.640Z,6.70
2018-09-19T07:56:12.554Z,6.40
2018-09-19T07:58:42.685Z,5.80
2018-09-19T08:01:18.638Z,6.67
2018-09-19T08:03:54.351Z,6.30
2018-09-19T08:08:57.214Z,6.30
2018-09-19T08:11:38.986Z,6.10
2018-09-19T08:14:08.715Z,5.90
2018-09-19T08:16:44.356Z,5.43
2018-09-19T08:19:12.324Z,6.13
2018-09-19T08:21:41.722Z,5.90
2018-09-19T08:24:19.062Z,5.57
2018-09-19T08:30:18.779Z,5.50
2018-09-19T08:33:33.673Z,5.33
2018-09-19T08:36:01.864Z,5.93
2018-09-19T08:38:29.945Z,5.20
2018-09-19T08:46:36.524Z,4.73
2018-09-19T08:49:06.607Z,4.47
2018-09-19T08:51:50.724Z,4.50
2018-09-19T08:54:27.093Z,4.30
2018-09-19T08:57:16.014Z,4.53
2018-09-19T09:00:02.551Z,4.77
2018-09-19T09:02:36.254Z,4.60
2018-09-19T09:05:14.126Z,4.20
2018-09-19T09:07:42.739Z,3.77
2018-09-19T09:10:23.665Z,4.00
2018-09-19T09:13:05.464Z,4.00
2018-09-19T09:15:34.869Z,4.30
2018-09-19T09:18:05.391Z,3.90
2018-09-19T09:20:40.978Z,4.20
2018-09-19T09:23:10.042Z,3.80
2018-09-19T09:25:38.002Z,3.47
2018-09-19T09:28:06.318Z,3.60
2018-09-19T09:30:35.155Z,3.70
2018-09-19T09:33:05.140Z,3.33
2018-09-19T09:35:36.703Z,3.27
2018-09-19T09:38:05.232Z,3.40
2018-09-19T09:40:34.321Z,3.53
2018-09-19T09:43:03.468Z,3.27
2018-09-19T09:45:32.645Z,3.93
2018-09-19T09:48:02.806Z,3.43
2018-09-19T09:50:32.411Z,3.80
2018-09-19T09:53:01.851Z,3.53
2018-09-19T09:55:31.348Z,3.00
2018-09-19T09:57:59.993Z,3.23
2018-09-19T10:00:34.949Z,3.20
2018-09-19T10:03:03.211Z,2.80
2018-09-19T10:06:01.478Z,3.07
2018-09-19T10:08:39.551Z,3.30
2018-09-19T10:11:08.677Z,3.50
2018-09-19T10:14:00.653Z,5.77
2018-09-19T10:16:31.800Z,3.27
2018-09-19T10:18:59.793Z,3.10
2018-09-19T10:21:28.649Z,2.97
2018-09-19T10:24:03.637Z,2.90
2018-09-19T10:26:31.645Z,3.23
2018-09-19T10:29:01.316Z,3.47
2018-09-19T10:31:30.464Z,3.17
2018-09-19T10:33:59.475Z,4.53
2018-09-19T10:36:54.686Z,3.07
2018-09-19T10:39:24.729Z,3.50
2018-09-19T10:41:59.691Z,3.03
2018-09-19T10:47:55.842Z,2.90
2018-09-19T10:53:28.670Z,2.87
2018-09-19T10:56:30.484Z,2.80
2018-09-19T10:59:00.201Z,2.80
2018-09-19T11:01:28.769Z,3.43
2018-09-19T11:03:56.803Z,2.97
2018-09-19T11:06:31.737Z,2.40
2018-09-19T11:09:01.573Z,3.10
2018-09-19T11:11:30.427Z,3.47
2018-09-19T11:13:58.392Z,2.60
2018-09-19T11:16:26.567Z,2.60
2018-09-19T11:18:55.239Z,2.90
2018-09-19T11:21:25.955Z,2.53
2018-09-19T11:23:53.898Z,2.80
2018-09-19T11:26:24.451Z,2.70
2018-09-19T11:28:53.078Z,2.87
2018-09-19T11:32:13.078Z,3.50
2018-09-19T11:34:58.585Z,2.83
2018-09-19T11:37:28.726Z,2.77
2018-09-19T11:40:14.582Z,2.60
2018-09-19T11:43:10.379Z,2.80
2018-09-19T11:46:17.621Z,3.50
2018-09-19T11:48:45.937Z,3.07
2018-09-19T11:52:10.903Z,2.90
2018-09-19T11:55:21.034Z,3.10
2018-09-19T11:58:00.553Z,3.27
2018-09-19T12:00:39.625Z,2.90
2018-09-19T12:03:08.315Z,2.77
2018-09-19T12:05:37.177Z,2.87
2018-09-19T12:08:06.792Z,2.77
2018-09-19T12:10:39.051Z,3.57
2018-09-19T12:17:33.251Z,2.97
2018-09-19T12:20:01.513Z,3.13
2018-09-19T12:22:33.777Z,2.90
2018-09-19T12:25:03.820Z,2.80
2018-09-19T12:27:36.646Z,3.30
2018-09-19T12:30:06.010Z,3.10
2018-09-19T12:32:39.434Z,3.13
2018-09-19T12:35:26.363Z,3.10
2018-09-19T12:38:01.928Z,3.13
2018-09-19T12:40:30.615Z,3.00
2018-09-19T12:42:59.303Z,3.00
2018-09-19T12:45:33.119Z,2.77
2018-09-19T12:48:01.227Z,3.20
2018-09-19T12:50:37.322Z,3.10
2018-09-19T12:53:05.534Z,2.80
2018-09-19T12:55:36.181Z,3.03
2018-09-19T12:58:05.021Z,2.67
2018-09-19T13:00:38.202Z,2.80
2018-09-19T13:03:33.082Z,3.03
2018-09-19T13:06:09.084Z,3.07
2018-09-19T13:08:46.820Z,3.50
2018-09-19T13:11:16.990Z,3.30
2018-09-19T13:13:46.104Z,2.97
2018-09-19T13:16:16.386Z,3.13
2018-09-19T13:19:24.054Z,2.87
2018-09-19T13:21:59.984Z,3.20
2018-09-19T13:24:28.635Z,3.00
2018-09-19T13:27:02.944Z,3.10
2018-09-19T13:29:36.713Z,3.20
2018-09-19T13:32:05.787Z,3.00
2018-09-19T13:34:35.718Z,3.03
2018-09-19T13:37:37.323Z,3.30
2018-09-19T13:40:15.771Z,3.33
2018-09-19T13:42:49.031Z,3.30
2018-09-19T13:45:28.526Z,3.10
2018-09-19T13:48:03.556Z,3.40
2018-09-19T13:50:40.169Z,3.10
2018-09-19T13:53:25.840Z,3.00
2018-09-19T13:56:12.846Z,3.20
2018-09-19T13:58:56.274Z,2.93
2018-09-19T14:01:47.150Z,3.30
2018-09-19T14:04:38.682Z,2.63
2018-09-19T14:07:11.337Z,3.00
2018-09-19T14:10:08.862Z,3.60
2018-09-19T14:12:40.247Z,3.10
2018-09-19T14:15:11.798Z,2.90
2018-09-19T14:17:54.635Z,2.83
2018-09-19T14:20:23.815Z,3.20
2018-09-19T14:22:55.114Z,2.83
2018-09-19T14:26:01.378Z,2.93
2018-09-19T14:29:00.609Z,2.60
2018-09-19T14:31:29.305Z,2.80
2018-09-19T14:34:14.040Z,2.93
2018-09-19T14:36:56.915Z,3.07
2018-09-19T14:39:51.458Z,2.97
2018-09-19T14:45:01.048Z,2.77
2018-09-19T14:47:31.571Z,3.27
2018-09-19T14:50:09.622Z,3.03
2018-09-19T14:52:43.421Z,2.90
2018-09-19T14:55:13.102Z,3.17
2018-09-19T14:57:46.640Z,2.90
2018-09-19T15:00:16.112Z,2.90
2018-09-19T15:06:07.165Z,3.00
2018-09-19T15:08:51.541Z,2.70
2018-09-19T15:11:47.910Z,2.70
2018-09-19T15:14:18.362Z,2.67
2018-09-19T15:17:29.644Z,3.00
2018-09-19T15:20:38.069Z,2.97
2018-09-19T15:23:27.479Z,3.27
2018-09-19T15:26:05.363Z,3.00
2018-09-19T15:28:34.811Z,2.67
2018-09-19T15:31:05.321Z,2.90
2018-09-19T15:33:43.945Z,2.83
2018-09-19T15:36:12.941Z,2.53
2018-09-19T15:38:42.494Z,2.60
2018-09-19T15:41:12.502Z,2.97
2018-09-19T15:44:07.466Z,3.30
2018-09-19T15:46:59.202Z,2.90
2018-09-19T15:52:42.676Z,3.00
2018-09-19T15:55:23.003Z,2.77
2018-09-19T15:57:52.761Z,3.10
2018-09-19T16:00:33.230Z,2.73
2018-09-19T16:03:01.815Z,2.90
2018-09-19T16:05:29.826Z,2.70
2018-09-19T16:07:58.452Z,2.60
2018-09-19T16:10:34.883Z,2.77
2018-09-19T16:13:05.166Z,2.90
2018-09-19T16:15:44.104Z,3.20
2018-09-19T16:18:13.812Z,3.13
2018-09-19T16:20:41.994Z,3.20
2018-09-19T16:23:11.978Z,2.97
2018-09-19T16:25:52.795Z,3.30
2018-09-19T16:28:45.429Z,3.20
2018-09-19T16:31:13.666Z,3.50
2018-09-19T16:33:43.266Z,2.93
2018-09-19T16:36:11.909Z,3.70
2018-09-19T16:38:43.180Z,3.10
2018-09-19T16:41:20.230Z,3.57
2018-09-19T16:44:02.434Z,3.40
2018-09-19T16:46:35.806Z,3.33
2018-09-19T16:49:07.260Z,3.77
2018-09-19T16:51:38.335Z,3.27
2018-09-19T16:54:11.622Z,3.30
2018-09-19T16:56:49.171Z,3.60
2018-09-19T16:59:20.212Z,3.27
2018-09-19T17:05:02.408Z,3.30
2018-09-19T17:07:33.448Z,3.30
2018-09-19T17:10:06.118Z,3.90
2018-09-19T17:12:43.543Z,4.10
2018-09-19T17:15:19.627Z,3.73
2018-09-19T17:18:00.469Z,3.57
2018-09-19T17:20:46.871Z,3.73
2018-09-19T17:23:18.541Z,3.40
2018-09-19T17:25:46.647Z,3.43
2018-09-19T17:28:45.577Z,3.57
2018-09-19T17:31:15.540Z,3.50
2018-09-19T17:33:43.495Z,3.40
2018-09-19T17:36:14.313Z,3.97
2018-09-19T17:38:51.155Z,4.03
2018-09-19T17:44:42.243Z,3.60
2018-09-19T17:47:10.842Z,3.80
2018-09-19T17:49:41.065Z,3.57
2018-09-19T17:52:14.797Z,4.13
2018-09-19T17:54:44.330Z,4.20
2018-09-19T17:57:14.033Z,4.20
2018-09-19T17:59:50.286Z,3.90
2018-09-19T18:02:23.229Z,4.13
2018-09-19T18:04:51.508Z,3.80
2018-09-19T18:07:21.642Z,3.63
2018-09-19T18:09:49.692Z,3.57
2018-09-19T18:12:19.289Z,4.10
2018-09-19T18:14:54.816Z,4.03
2018-09-19T18:17:32.147Z,3.90
2018-09-19T18:20:16.828Z,4.10
2018-09-19T18:23:13.860Z,4.53
2018-09-19T18:26:04.255Z,4.50
2018-09-19T18:28:33.180Z,4.40
2018-09-19T18:31:03.187Z,4.33
2018-09-19T18:33:34.666Z,5.20
2018-09-19T18:36:17.147Z,4.53
2018-09-19T18:39:23.377Z,4.50
2018-09-19T18:47:40.647Z,5.53
2018-09-19T18:50:12.036Z,4.83
2018-09-19T18:52:53.823Z,5.33
2018-09-19T18:58:12.557Z,5.23
2018-09-19T19:00:47.441Z,5.57
2018-09-19T19:03:16.581Z,5.23
2018-09-19T19:05:44.615Z,4.67
2018-09-19T19:08:13.949Z,4.57
2018-09-19T19:10:57.313Z,4.73
2018-09-19T19:13:37.515Z,4.50
2018-09-19T19:16:10.181Z,4.70
2018-09-19T19:18:58.702Z,4.47
2018-09-19T19:21:47.671Z,4.50
2018-09-19T19:24:25.072Z,5.07
2018-09-19T19:26:55.680Z,5.83
2018-09-19T19:29:40.301Z,5.40
2018-09-19T19:32:10.284Z,5.40
2018-09-19T19:35:26.855Z,5.50
2018-09-19T19:38:33.507Z,5.20
2018-09-19T19:41:15.707Z,5.27
2018-09-19T19:44:30.376Z,5.80
2018-09-19T19:47:01.826Z,4.50
2018-09-19T19:49:31.783Z,5.23
2018-09-19T19:52:00.979Z,5.23
2018-09-19T19:54:37.046Z,4.93
2018-09-19T19:57:06.314Z,4.93
2018-09-19T19:59:36.009Z,6.27
2018-09-19T20:02:05.936Z,6.50
2018-09-19T20:04:35.854Z,4.47
2018-09-19T20:07:03.944Z,4.70
2018-09-19T20:09:33.065Z,5.00
2018-09-19T20:12:04.379Z,5.50
2018-09-19T20:14:53.991Z,5.00
2018-09-19T20:17:26.264Z,5.20
2018-09-19T20:19:57.854Z,5.47
2018-09-19T20:22:26.983Z,4.93
2018-09-19T20:24:55.744Z,5.30
2018-09-19T20:27:28.918Z,5.20
2018-09-19T20:30:08.940Z,5.23
2018-09-19T20:32:43.651Z,5.23
2018-09-19T20:35:15.648Z,5.57
2018-09-19T20:37:43.917Z,9.10
2018-09-19T20:40:13.943Z,5.80
2018-09-19T20:42:44.132Z,7.60
2018-09-19T20:45:12.185Z,8.83
2018-09-19T20:50:24.434Z,5.50
2018-09-19T20:53:16.199Z,5.00
2018-09-19T20:55:49.322Z,5.07
2018-09-19T20:58:19.178Z,5.57
2018-09-19T21:00:49.419Z,5.23
2018-09-19T21:03:19.677Z,5.43
2018-09-19T21:05:50.653Z,6.67
2018-09-19T21:08:18.702Z,6.10
2018-09-19T21:10:47.762Z,5.60
2018-09-19T21:13:16.812Z,6.27
2018-09-19T21:15:46.819Z,5.70
2018-09-19T21:18:15.996Z,5.90
2018-09-19T21:20:46.288Z,5.97
2018-09-19T21:23:15.218Z,6.20
2018-09-19T21:25:44.264Z,5.47
2018-09-19T21:28:15.479Z,5.43
2018-09-19T21:30:45.816Z,5.87
2018-09-19T21:33:13.887Z,5.93
2018-09-19T21:35:43.613Z,5.50
2018-09-19T21:38:46.510Z,5.37
2018-09-19T21:41:16.085Z,5.00
2018-09-19T21:43:47.262Z,4.70
2018-09-19T21:46:19.795Z,5.40
2018-09-19T21:48:55.866Z,5.43
2018-09-19T21:51:26.650Z,4.97
2018-09-19T21:53:55.289Z,5.73
2018-09-19T21:56:23.408Z,5.80
2018-09-19T21:59:00.679Z,5.77
2018-09-19T22:01:35.319Z,6.10
2018-09-19T22:04:03.801Z,6.13
2018-09-19T22:06:32.968Z,6.33
2018-09-19T22:09:07.350Z,6.73
2018-09-19T22:11:36.689Z,6.60
2018-09-19T22:14:07.546Z,6.03
2018-09-19T22:16:37.970Z,5.40
2018-09-19T22:19:07.170Z,5.73
2018-09-19T22:21:37.685Z,4.60
2018-09-19T22:24:10.785Z,5.67
2018-09-19T22:26:39.345Z,6.57
2018-09-19T22:29:08.388Z,5.90
2018-09-19T22:31:37.965Z,5.63
2018-09-19T22:34:07.807Z,5.83
2018-09-19T22:36:35.854Z,5.90
2018-09-19T22:39:09.142Z,5.53
2018-09-19T22:41:37.204Z,5.60
2018-09-19T22:44:05.387Z,5.67
2018-09-19T22:46:35.468Z,5.80
2018-09-19T22:49:03.550Z,5.83
2018-09-19T22:51:33.415Z,6.40
2018-09-19T22:54:01.925Z,6.47
2018-09-19T22:56:33.544Z,6.53
2018-09-19T22:59:02.111Z,5.60
2018-09-19T23:01:30.336Z,6.27
2018-09-19T23:03:59.117Z,6.10
2018-09-19T23:06:27.368Z,5.27
2018-09-19T23:08:56.480Z,5.57
2018-09-19T23:11:26.587Z,5.43
2018-09-19T23:13:56.640Z,6.10
2018-09-19T23:16:25.861Z,5.60
2018-09-19T23:18:55.267Z,5.63
2018-09-19T23:21:23.771Z,5.20
2018-09-19T23:23:51.936Z,5.30
2018-09-19T23:26:21.537Z,6.10
2018-09-19T23:28:50.223Z,6.63
2018-09-19T23:31:18.458Z,6.20
2018-09-19T23:33:47.210Z,5.97
2018-09-19T23:36:15.945Z,6.10
2018-09-19T23:38:48.590Z,6.20
2018-09-19T23:41:18.133Z,6.03
2018-09-19T23:43:47.939Z,6.70
2018-09-19T23:46:17.169Z,6.50
2018-09-19T23:48:45.346Z,6.37
2018-09-19T23:51:16.927Z,6.10
2018-09-19T23:53:46.306Z,6.00
2018-09-19T23:56:16.508Z,5.60
2018-09-19T23:58:49.954Z,5.67
